Wilsona Gardens, California
Current Conditions -  °F | °C
As of 12:58 AM on Monday 24 Nov 2014 (Local Time) from KEDW Reporting Station
Clear Clear  
Wind Chill: 32°   Ceiling: Unl
Heat Index: 37°   Visibility: 10mi
Dew Point: 10°   Wind: 6mph
Humidity: 34%   Direction: 360°N
Pressure: 30.26"   Gusts: NA
Location:  34.7192°N, 117.884°W
Report Text: KEDW 240858Z AUTO 36005KT 10SM CLR 03/M12 A3026 RMK AO2 SLP246 T00261121 50003
Loading
Personal Weather Stations






























Interactive Weather Map New forecast layout! Learn more

10-Day Weather Forecast

Advertisements
Track Severe Weather on mobile